Anzoras — EAZC — position and weather

sailwx.info

Track history (hours):
 
Tides and Currents Weather Stations Pressure Air Temp Water Temp Dewpoint Dewpoint Depression Visibility Wind Speed Wind Dir Waves Ship Positions

Anzoras

Last reported at 2016-Apr-30 19:26 UTC. Time now 2016-May-01 00:30 UTC.
Position N 37°26' W 009°43'.

Length 100 m; draft 6.7 m.

Type: Cargo ship. MMSI: 224376000.

Date/timePositionNaut miles runAvg speedWind from/ knotsBaromVisibWave heightAir tempDewpointWater temp
2016-Apr-30 19:26N 37°26' W 009°43'2210.8
2016-Apr-30 17:26N 37°47' W 009°49'1011.0
2016-Apr-30 16:31N 37°57' W 009°52'1110.8
2016-Apr-30 15:31N 38°08' W 009°55'377 8.5
2016-Apr-28 19:09N 43°43' W 006°07'1011.6
2016-Apr-28 18:19N 43°42' W 005°53'911.3
2016-Apr-28 17:33N 43°38' W 005°43'5 0.9
2016-Apr-28 12:31N 43°34' W 005°42'0 0.0
2016-Apr-28 09:31N 43°34' W 005°42'0 0.0
2016-Apr-28 08:31N 43°34' W 005°42'0 0.0
2016-Apr-28 07:13N 43°34' W 005°42'0 0.0
2016-Apr-28 06:25N 43°34' W 005°42'0 0.0
2016-Apr-28 05:25N 43°34' W 005°42'0 0.0
2016-Apr-28 04:25N 43°34' W 005°42'0 0.0
2016-Apr-28 03:19N 43°34' W 005°42'0 0.0
2016-Apr-28 02:13N 43°34' W 005°42'0 0.0
2016-Apr-28 01:31N 43°34' W 005°42'0 0.0
2016-Apr-27 23:31N 43°34' W 005°42'0 0.0
2016-Apr-27 22:25N 43°34' W 005°42'0 0.0
2016-Apr-27 17:19N 43°34' W 005°42'0 0.0
2016-Apr-27 16:31N 43°34' W 005°42'0 0.0
2016-Apr-27 12:31N 43°34' W 005°42'0 0.0
2016-Apr-27 08:31N 43°34' W 005°42'0 0.0
2016-Apr-27 05:31N 43°34' W 005°42'0 0.0
2016-Apr-27 04:19N 43°34' W 005°42'0 0.0
2016-Apr-27 03:31N 43°34' W 005°42'0 0.0
2016-Apr-27 02:31N 43°34' W 005°42'0 0.0
2016-Apr-27 01:07N 43°34' W 005°42'0 0.0
2016-Apr-27 00:19N 43°34' W 005°42'0 0.0
2016-Apr-26 23:33N 43°34' W 005°42'  
2016-Apr-21 03:33N 39°08' W 009°50'1010.4
2016-Apr-21 02:33N 38°57' W 009°50'1010.3
2016-Apr-21 01:33N 38°47' W 009°50'10 9.9
2016-Apr-21 00:33N 38°37' W 009°47'10 9.7
2016-Apr-20 23:33N 38°33' W 009°36'10 9.5
2016-Apr-20 22:33N 38°28' W 009°25'  
Track history (hours):
 
Tides and Currents Weather Stations Pressure Air Temp Water Temp Dewpoint Dewpoint Depression Visibility Wind Speed Wind Dir Waves Ship Positions

Anzoras

Last reported at 2016-Apr-30 19:26 UTC. Time now 2016-May-01 00:30 UTC.
Position N 37°26' W 009°43'.

Length 100 m; draft 6.7 m.

Type: Cargo ship. MMSI: 224376000.

Date/timePositionNaut miles runAvg speedWind from/ knotsBaromVisibWave heightAir tempDewpointWater temp
2016-Apr-30 19:26N 37°26' W 009°43'2210.8
2016-Apr-30 17:26N 37°47' W 009°49'1011.0
2016-Apr-30 16:31N 37°57' W 009°52'1110.8
2016-Apr-30 15:31N 38°08' W 009°55'377 8.5
2016-Apr-28 19:09N 43°43' W 006°07'1011.6
2016-Apr-28 18:19N 43°42' W 005°53'911.3
2016-Apr-28 17:33N 43°38' W 005°43'5 0.9
2016-Apr-28 12:31N 43°34' W 005°42'0 0.0
2016-Apr-28 09:31N 43°34' W 005°42'0 0.0
2016-Apr-28 08:31N 43°34' W 005°42'0 0.0
2016-Apr-28 07:13N 43°34' W 005°42'0 0.0
2016-Apr-28 06:25N 43°34' W 005°42'0 0.0
2016-Apr-28 05:25N 43°34' W 005°42'0 0.0
2016-Apr-28 04:25N 43°34' W 005°42'0 0.0
2016-Apr-28 03:19N 43°34' W 005°42'0 0.0
2016-Apr-28 02:13N 43°34' W 005°42'0 0.0
2016-Apr-28 01:31N 43°34' W 005°42'0 0.0
2016-Apr-27 23:31N 43°34' W 005°42'0 0.0
2016-Apr-27 22:25N 43°34' W 005°42'0 0.0
2016-Apr-27 17:19N 43°34' W 005°42'0 0.0
2016-Apr-27 16:31N 43°34' W 005°42'0 0.0
2016-Apr-27 12:31N 43°34' W 005°42'0 0.0
2016-Apr-27 08:31N 43°34' W 005°42'0 0.0
2016-Apr-27 05:31N 43°34' W 005°42'0 0.0
2016-Apr-27 04:19N 43°34' W 005°42'0 0.0
2016-Apr-27 03:31N 43°34' W 005°42'0 0.0
2016-Apr-27 02:31N 43°34' W 005°42'0 0.0
2016-Apr-27 01:07N 43°34' W 005°42'0 0.0
2016-Apr-27 00:19N 43°34' W 005°42'0 0.0
2016-Apr-26 23:33N 43°34' W 005°42'  
2016-Apr-21 03:33N 39°08' W 009°50'1010.4
2016-Apr-21 02:33N 38°57' W 009°50'1010.3
2016-Apr-21 01:33N 38°47' W 009°50'10 9.9
2016-Apr-21 00:33N 38°37' W 009°47'10 9.7
2016-Apr-20 23:33N 38°33' W 009°36'10 9.5
2016-Apr-20 22:33N 38°28' W 009°25'  

Dump ship's entire track history